createdAt,value
2019-03-24T00:02:10.686Z,30.73
2019-03-24T00:04:39.350Z,31.50
2019-03-24T00:07:07.732Z,30.90
2019-03-24T00:09:36.387Z,31.03
2019-03-24T00:12:04.919Z,30.33
2019-03-24T00:14:33.393Z,32.17
2019-03-24T00:17:01.787Z,31.20
2019-03-24T00:19:30.231Z,30.87
2019-03-24T00:21:58.805Z,29.03
2019-03-24T00:24:27.241Z,30.67
2019-03-24T00:26:55.646Z,29.87
2019-03-24T00:29:24.054Z,33.20
2019-03-24T00:31:52.483Z,32.53
2019-03-24T00:34:20.870Z,32.43
2019-03-24T00:36:49.267Z,31.10
2019-03-24T00:39:17.747Z,33.10
2019-03-24T00:41:46.142Z,31.87
2019-03-24T00:44:14.831Z,31.33
2019-03-24T00:46:43.253Z,30.37
2019-03-24T00:49:11.685Z,30.27
2019-03-24T00:51:40.102Z,29.10
2019-03-24T00:54:08.481Z,31.37
2019-03-24T00:56:36.897Z,31.23
2019-03-24T00:59:05.474Z,31.40
2019-03-24T01:01:33.882Z,31.23
2019-03-24T01:04:02.300Z,32.50
2019-03-24T01:06:30.697Z,32.30
2019-03-24T01:08:59.089Z,33.10
2019-03-24T01:11:27.507Z,33.73
2019-03-24T01:13:55.894Z,35.63
2019-03-24T01:16:24.383Z,32.63
2019-03-24T01:18:53.025Z,32.57
2019-03-24T01:21:21.434Z,31.97
2019-03-24T01:23:49.831Z,34.03
2019-03-24T01:26:18.241Z,32.17
2019-03-24T01:28:46.638Z,33.30
2019-03-24T01:31:15.059Z,32.93
2019-03-24T01:33:43.769Z,32.73
2019-03-24T01:36:12.176Z,31.97
2019-03-24T01:38:40.570Z,31.07
2019-03-24T01:41:08.992Z,32.40
2019-03-24T01:43:37.373Z,32.33
2019-03-24T01:46:05.943Z,31.60
2019-03-24T01:48:34.425Z,32.30
2019-03-24T01:51:03.194Z,31.37
2019-03-24T01:53:31.730Z,30.97
2019-03-24T01:56:00.126Z,30.13
2019-03-24T01:58:28.647Z,29.70
2019-03-24T02:00:57.106Z,30.13
2019-03-24T02:03:25.498Z,31.27
2019-03-24T02:05:53.959Z,33.07
2019-03-24T02:08:22.369Z,33.40
2019-03-24T02:10:50.762Z,33.90
2019-03-24T02:13:19.174Z,33.63
2019-03-24T02:15:47.571Z,33.63
2019-03-24T02:18:15.958Z,31.67
2019-03-24T02:20:44.382Z,35.30
2019-03-24T02:23:12.789Z,34.87
2019-03-24T02:25:41.174Z,33.10
2019-03-24T02:28:09.688Z,32.47
2019-03-24T02:30:38.179Z,30.27
2019-03-24T02:33:12.311Z,33.00
2019-03-24T02:35:40.731Z,31.40
2019-03-24T02:38:09.152Z,31.23
2019-03-24T02:40:37.606Z,32.10
2019-03-24T02:43:06.022Z,31.57
2019-03-24T02:45:34.436Z,32.20
2019-03-24T02:48:02.850Z,32.17
2019-03-24T02:50:31.237Z,33.93
2019-03-24T02:52:59.639Z,32.30
2019-03-24T02:55:28.038Z,33.67
2019-03-24T02:57:56.464Z,32.33
2019-03-24T03:00:24.955Z,31.33
2019-03-24T03:02:53.371Z,34.87
2019-03-24T03:05:21.762Z,32.83
2019-03-24T03:07:50.187Z,31.53
2019-03-24T03:10:18.817Z,32.17
2019-03-24T03:12:47.882Z,33.20
2019-03-24T03:15:16.495Z,30.37
2019-03-24T03:17:44.879Z,31.27
2019-03-24T03:20:13.739Z,33.00
2019-03-24T03:22:42.456Z,30.67
2019-03-24T03:25:11.806Z,33.30
2019-03-24T03:27:40.290Z,34.00
2019-03-24T03:30:09.557Z,32.37
2019-03-24T03:32:38.224Z,32.43
2019-03-24T03:35:08.171Z,33.00
2019-03-24T03:37:36.601Z,35.00
2019-03-24T03:40:07.305Z,33.17
2019-03-24T03:42:35.927Z,32.57
2019-03-24T03:45:05.465Z,33.50
2019-03-24T03:47:33.874Z,32.17
2019-03-24T03:50:02.356Z,31.57
2019-03-24T03:52:30.784Z,30.40
2019-03-24T03:54:59.189Z,31.33
2019-03-24T03:57:27.577Z,32.57
2019-03-24T04:00:15.411Z,33.00
2019-03-24T04:02:43.807Z,31.37
2019-03-24T04:05:12.230Z,31.70
2019-03-24T04:07:40.986Z,32.17
2019-03-24T04:10:09.768Z,33.87
2019-03-24T04:12:38.140Z,32.90
2019-03-24T04:15:08.346Z,34.30
2019-03-24T04:17:36.767Z,31.93
2019-03-24T04:20:06.012Z,34.70
2019-03-24T04:22:34.482Z,31.77
2019-03-24T04:25:03.019Z,28.80
2019-03-24T04:27:31.436Z,32.90
2019-03-24T04:30:00.448Z,34.70
2019-03-24T04:32:28.913Z,33.77
2019-03-24T04:34:57.307Z,31.20
2019-03-24T04:37:25.730Z,31.90
2019-03-24T04:39:54.120Z,32.73
2019-03-24T04:42:22.862Z,33.07
2019-03-24T04:44:51.255Z,31.20
2019-03-24T04:47:19.654Z,33.27
2019-03-24T04:49:48.067Z,29.23
2019-03-24T04:52:16.477Z,32.47
2019-03-24T04:54:44.942Z,33.43
2019-03-24T04:57:13.360Z,31.87
2019-03-24T04:59:41.901Z,32.37
2019-03-24T05:02:10.299Z,32.97
2019-03-24T05:04:39.651Z,33.00
2019-03-24T05:07:09.305Z,31.97
2019-03-24T05:09:38.139Z,31.90
2019-03-24T05:12:06.534Z,30.77
2019-03-24T05:14:35.011Z,33.47
2019-03-24T05:17:03.426Z,31.27
2019-03-24T05:19:31.922Z,31.80
2019-03-24T05:22:00.310Z,33.17
2019-03-24T05:24:28.730Z,32.43
2019-03-24T05:26:57.126Z,31.30
2019-03-24T05:29:25.538Z,31.03
2019-03-24T05:31:53.950Z,32.60
2019-03-24T05:34:22.350Z,30.13
2019-03-24T05:36:50.767Z,31.03
2019-03-24T05:39:19.178Z,32.77
2019-03-24T05:41:47.626Z,30.40
2019-03-24T05:44:16.295Z,33.57
2019-03-24T05:46:44.758Z,33.40
2019-03-24T05:49:13.241Z,33.13
2019-03-24T05:51:41.959Z,32.70
2019-03-24T05:54:10.526Z,35.10
2019-03-24T05:56:38.939Z,36.00
2019-03-24T05:59:07.343Z,38.63
2019-03-24T06:01:35.758Z,36.37
2019-03-24T06:04:04.159Z,36.80
2019-03-24T06:06:32.602Z,37.60
2019-03-24T06:09:01.145Z,37.30
2019-03-24T06:11:29.554Z,35.93
2019-03-24T06:13:57.970Z,38.47
2019-03-24T06:16:26.374Z,41.00
2019-03-24T06:18:54.786Z,37.63
2019-03-24T06:21:23.262Z,38.57
2019-03-24T06:23:51.883Z,36.43
2019-03-24T06:26:20.359Z,37.50
2019-03-24T06:28:48.754Z,36.37
2019-03-24T06:31:17.166Z,38.87
2019-03-24T06:33:45.595Z,38.57
2019-03-24T06:36:13.994Z,38.50
2019-03-24T06:38:42.406Z,37.27
2019-03-24T06:41:11.146Z,40.60
2019-03-24T06:43:39.596Z,40.23
2019-03-24T06:46:08.142Z,40.27
2019-03-24T06:48:36.550Z,39.83
2019-03-24T06:51:04.979Z,37.80
2019-03-24T06:53:33.446Z,36.70
2019-03-24T06:56:01.932Z,38.03
2019-03-24T06:58:30.335Z,38.13
2019-03-24T07:00:58.757Z,37.43
2019-03-24T07:03:29.895Z,37.70
2019-03-24T07:05:58.430Z,36.63
2019-03-24T07:08:27.246Z,36.87
2019-03-24T07:10:55.619Z,36.17
2019-03-24T07:13:24.038Z,35.83
2019-03-24T07:15:52.749Z,38.83
2019-03-24T07:18:21.143Z,37.00
2019-03-24T07:20:49.563Z,34.87
2019-03-24T07:23:17.958Z,36.43
2019-03-24T07:25:46.358Z,34.63
2019-03-24T07:28:14.816Z,35.23
2019-03-24T07:30:43.230Z,37.73
2019-03-24T07:33:13.193Z,39.57
2019-03-24T07:35:41.662Z,36.60
2019-03-24T07:38:10.054Z,37.87
2019-03-24T07:40:38.466Z,38.23
2019-03-24T07:43:06.888Z,36.47
2019-03-24T07:45:35.451Z,37.50
2019-03-24T07:48:03.918Z,36.00
2019-03-24T07:50:32.331Z,36.33
2019-03-24T07:53:00.738Z,35.10
2019-03-24T07:55:29.150Z,34.20
2019-03-24T07:57:58.008Z,35.57
2019-03-24T08:00:35.226Z,37.23
2019-03-24T08:03:03.872Z,34.60
2019-03-24T08:05:32.396Z,35.60
2019-03-24T08:08:00.792Z,34.37
2019-03-24T08:10:29.497Z,35.53
2019-03-24T08:12:58.055Z,35.33
2019-03-24T08:15:26.578Z,33.50
2019-03-24T08:17:54.987Z,35.03
2019-03-24T08:20:23.382Z,34.53
2019-03-24T08:22:51.999Z,34.87
2019-03-24T08:25:20.385Z,33.33
2019-03-24T08:27:48.808Z,35.17
2019-03-24T08:30:20.291Z,35.97
2019-03-24T08:32:48.753Z,35.50
2019-03-24T08:35:17.174Z,35.53
2019-03-24T08:37:45.582Z,34.80
2019-03-24T08:40:14.067Z,34.83
2019-03-24T08:42:42.649Z,33.87
2019-03-24T08:45:14.151Z,34.60
2019-03-24T08:47:42.930Z,33.53
2019-03-24T08:50:11.879Z,34.60
2019-03-24T08:52:40.302Z,34.97
2019-03-24T08:55:08.771Z,33.80
2019-03-24T08:57:37.790Z,37.13
2019-03-24T09:00:06.843Z,34.80
2019-03-24T09:02:35.468Z,36.73
2019-03-24T09:05:05.762Z,34.83
2019-03-24T09:07:34.174Z,36.43
2019-03-24T09:10:02.654Z,35.57
2019-03-24T09:12:31.412Z,35.77
2019-03-24T09:15:01.641Z,34.20
2019-03-24T09:17:30.119Z,37.20
2019-03-24T09:19:58.538Z,34.30
2019-03-24T09:22:26.951Z,37.27
2019-03-24T09:24:55.354Z,37.30
2019-03-24T09:27:24.123Z,34.40
2019-03-24T09:29:52.588Z,37.27
2019-03-24T09:32:21.072Z,37.13
2019-03-24T09:34:49.491Z,35.73
2019-03-24T09:37:17.907Z,35.47
2019-03-24T09:39:46.302Z,37.40
2019-03-24T09:42:14.731Z,37.47
2019-03-24T09:44:43.213Z,36.07
2019-03-24T09:47:11.643Z,37.00
2019-03-24T09:49:40.239Z,37.23
2019-03-24T09:52:08.686Z,37.17
2019-03-24T09:54:37.176Z,35.40
2019-03-24T09:57:06.701Z,37.00
2019-03-24T09:59:35.307Z,35.07
2019-03-24T10:02:03.714Z,35.87
2019-03-24T10:04:32.126Z,37.30
2019-03-24T10:07:00.526Z,36.70
2019-03-24T10:09:28.939Z,36.67
2019-03-24T10:11:57.408Z,37.47
2019-03-24T10:14:25.826Z,36.13
2019-03-24T10:16:55.673Z,35.70
2019-03-24T10:19:24.412Z,36.57
2019-03-24T10:21:52.840Z,36.97
2019-03-24T10:24:21.266Z,36.40
2019-03-24T10:26:49.678Z,38.40
2019-03-24T10:29:18.079Z,36.27
2019-03-24T10:31:46.576Z,37.70
2019-03-24T10:34:15.035Z,36.83
2019-03-24T10:36:43.455Z,37.57
2019-03-24T10:39:12.147Z,38.93
2019-03-24T10:41:40.842Z,38.00
2019-03-24T10:44:09.338Z,36.60
2019-03-24T10:46:37.755Z,36.57
2019-03-24T10:49:06.308Z,37.73
2019-03-24T10:51:34.728Z,40.88
2019-03-24T10:54:03.146Z,37.73
2019-03-24T10:56:31.555Z,37.53
2019-03-24T10:58:59.978Z,35.07
2019-03-24T11:01:28.403Z,35.90
2019-03-24T11:03:56.811Z,36.07
2019-03-24T11:06:25.283Z,37.97
2019-03-24T11:08:53.701Z,35.83
2019-03-24T11:11:22.126Z,33.90
2019-03-24T11:13:50.617Z,35.67
2019-03-24T11:16:19.054Z,35.60
2019-03-24T11:18:47.534Z,35.17
2019-03-24T11:21:15.946Z,34.47
2019-03-24T11:23:44.364Z,34.37
2019-03-24T11:26:12.766Z,33.30
2019-03-24T11:28:41.272Z,35.57
2019-03-24T11:31:09.681Z,34.33
2019-03-24T11:33:38.114Z,34.73
2019-03-24T11:36:06.690Z,34.10
2019-03-24T11:38:35.224Z,34.37
2019-03-24T11:41:03.886Z,34.27
2019-03-24T11:43:32.287Z,34.07
2019-03-24T11:46:00.708Z,33.53
2019-03-24T11:48:29.114Z,33.63
2019-03-24T11:50:57.586Z,34.77
2019-03-24T11:53:26.179Z,33.13
2019-03-24T11:55:54.644Z,33.57
2019-03-24T11:58:23.068Z,35.47
2019-03-24T12:00:51.467Z,33.80
2019-03-24T12:03:19.887Z,34.03
2019-03-24T12:05:48.611Z,33.93
2019-03-24T12:08:17.052Z,34.73
2019-03-24T12:10:45.499Z,34.10
2019-03-24T12:13:13.983Z,31.80
2019-03-24T12:15:42.398Z,30.50
2019-03-24T12:18:11.285Z,30.90
2019-03-24T12:20:39.710Z,30.23
2019-03-24T12:23:08.288Z,30.40
2019-03-24T12:25:36.750Z,30.60
2019-03-24T12:28:05.254Z,29.73
2019-03-24T12:30:33.654Z,31.50
2019-03-24T12:33:02.794Z,29.77
2019-03-24T12:35:31.467Z,34.63
2019-03-24T12:37:59.871Z,33.60
2019-03-24T12:40:28.325Z,30.90
2019-03-24T12:42:56.994Z,32.73
2019-03-24T12:45:25.410Z,29.87
2019-03-24T12:47:53.895Z,32.10
2019-03-24T12:50:30.909Z,31.33
2019-03-24T12:52:52.441Z,30.33
2019-03-24T12:55:20.871Z,30.60
2019-03-24T12:57:49.271Z,31.93
2019-03-24T13:00:35.326Z,29.67
2019-03-24T13:03:04.173Z,30.33
2019-03-24T13:05:32.597Z,31.53
2019-03-24T13:08:12.428Z,31.17
2019-03-24T13:10:42.398Z,29.50
2019-03-24T13:13:11.599Z,30.07
2019-03-24T13:15:40.565Z,30.13
2019-03-24T13:18:09.151Z,29.27
2019-03-24T13:20:38.752Z,30.37
2019-03-24T13:23:07.502Z,30.53
2019-03-24T13:25:36.412Z,29.77
2019-03-24T13:28:05.051Z,30.03
2019-03-24T13:30:33.472Z,31.20
2019-03-24T13:33:02.011Z,31.07
2019-03-24T13:35:30.446Z,29.83
2019-03-24T13:37:59.031Z,28.90
2019-03-24T13:40:27.434Z,29.47
2019-03-24T13:42:55.854Z,29.33
2019-03-24T13:45:24.327Z,29.23
2019-03-24T13:47:52.762Z,28.47
2019-03-24T13:50:30.914Z,27.77
2019-03-24T13:52:51.365Z,28.67
2019-03-24T13:55:20.021Z,29.40
2019-03-24T13:57:48.448Z,26.97
2019-03-24T14:00:17.838Z,27.73
2019-03-24T14:02:46.249Z,28.37
2019-03-24T14:05:14.663Z,29.37
2019-03-24T14:07:43.387Z,29.70
2019-03-24T14:10:12.230Z,29.60
2019-03-24T14:12:40.718Z,29.77
2019-03-24T14:15:09.286Z,29.70
2019-03-24T14:17:37.875Z,30.63
2019-03-24T14:20:08.314Z,28.93
2019-03-24T14:22:36.735Z,28.83
2019-03-24T14:25:08.712Z,28.03
2019-03-24T14:27:37.157Z,29.30
2019-03-24T14:30:07.931Z,27.87
2019-03-24T14:32:36.394Z,28.87
2019-03-24T14:35:06.201Z,30.23
2019-03-24T14:37:34.665Z,28.70
2019-03-24T14:40:04.598Z,28.80
2019-03-24T14:42:33.027Z,28.40
2019-03-24T14:45:01.484Z,29.13
2019-03-24T14:47:29.955Z,28.80
2019-03-24T14:49:58.355Z,28.90
2019-03-24T14:52:26.886Z,29.21
2019-03-24T14:54:55.491Z,31.07
2019-03-24T14:57:23.894Z,29.00
2019-03-24T14:59:52.313Z,29.87
2019-03-24T15:02:20.770Z,28.23
2019-03-24T15:04:49.208Z,29.67
2019-03-24T15:07:17.730Z,28.73
2019-03-24T15:09:46.131Z,29.27
2019-03-24T15:12:14.762Z,27.93
2019-03-24T15:14:43.191Z,27.73
2019-03-24T15:17:11.606Z,27.93
2019-03-24T15:19:40.023Z,27.00
2019-03-24T15:22:08.428Z,29.07
2019-03-24T15:24:36.857Z,29.30
2019-03-24T15:27:05.335Z,28.67
2019-03-24T15:29:33.843Z,29.47
2019-03-24T15:32:02.318Z,30.00
2019-03-24T15:34:30.722Z,28.93
2019-03-24T15:36:59.137Z,27.87
2019-03-24T15:39:27.544Z,28.73
2019-03-24T15:41:56.129Z,27.50
2019-03-24T15:44:24.643Z,27.47
2019-03-24T15:46:53.060Z,28.30
2019-03-24T15:49:21.477Z,27.60
2019-03-24T15:51:49.895Z,26.93
2019-03-24T15:54:18.542Z,26.90
2019-03-24T15:56:46.965Z,26.70
2019-03-24T15:59:15.395Z,28.73
2019-03-24T16:01:43.794Z,27.70
2019-03-24T16:04:12.198Z,27.67
2019-03-24T16:06:40.635Z,27.20
2019-03-24T16:09:09.459Z,26.57
2019-03-24T16:11:37.967Z,28.53
2019-03-24T16:14:06.702Z,26.03
2019-03-24T16:16:35.129Z,27.27
2019-03-24T16:19:22.946Z,25.47
2019-03-24T16:21:51.366Z,25.00
2019-03-24T16:24:19.969Z,25.47
2019-03-24T16:26:48.416Z,26.13
2019-03-24T16:29:16.985Z,26.50
2019-03-24T16:31:45.478Z,25.33
2019-03-24T16:34:14.216Z,23.90
2019-03-24T16:36:42.661Z,25.70
2019-03-24T16:39:11.062Z,25.33
2019-03-24T16:41:39.487Z,26.43
2019-03-24T16:44:07.902Z,26.00
2019-03-24T16:46:36.309Z,27.63
2019-03-24T16:49:05.109Z,25.67
2019-03-24T16:51:38.475Z,26.10
2019-03-24T16:54:04.012Z,26.73
2019-03-24T16:56:32.488Z,26.37
2019-03-24T16:59:00.899Z,25.07
2019-03-24T17:01:29.395Z,25.93
2019-03-24T17:03:57.789Z,26.23
2019-03-24T17:06:26.195Z,26.10
2019-03-24T17:08:54.611Z,25.23
2019-03-24T17:11:23.090Z,25.17
2019-03-24T17:13:51.505Z,26.17
2019-03-24T17:16:19.972Z,25.90
2019-03-24T17:18:48.397Z,25.93
2019-03-24T17:21:16.819Z,25.23
2019-03-24T17:23:45.503Z,27.17
2019-03-24T17:26:13.912Z,26.23
2019-03-24T17:28:42.398Z,25.37
2019-03-24T17:31:10.814Z,27.43
2019-03-24T17:33:39.407Z,26.73
2019-03-24T17:36:07.869Z,26.27
2019-03-24T17:38:36.351Z,28.37
2019-03-24T17:41:04.751Z,26.07
2019-03-24T17:43:33.232Z,27.20
2019-03-24T17:46:01.664Z,27.13
2019-03-24T17:48:30.066Z,26.90
2019-03-24T17:50:58.578Z,27.60
2019-03-24T17:53:26.990Z,27.53
2019-03-24T17:55:55.478Z,26.03
2019-03-24T17:58:24.046Z,27.60
2019-03-24T18:00:54.090Z,26.57
2019-03-24T18:03:22.491Z,29.23
2019-03-24T18:05:50.906Z,28.17
2019-03-24T18:08:19.419Z,27.70
2019-03-24T18:10:47.825Z,27.07
2019-03-24T18:13:16.224Z,26.87
2019-03-24T18:15:44.633Z,25.60
2019-03-24T18:18:13.034Z,27.43
2019-03-24T18:20:41.522Z,26.70
2019-03-24T18:23:10.083Z,26.60
2019-03-24T18:25:38.565Z,27.10
2019-03-24T18:28:07.235Z,25.70
2019-03-24T18:30:35.633Z,28.43
2019-03-24T18:33:04.526Z,26.37
2019-03-24T18:35:32.967Z,27.43
2019-03-24T18:38:01.387Z,27.13
2019-03-24T18:40:29.786Z,28.03
2019-03-24T18:42:58.300Z,25.70
2019-03-24T18:45:26.700Z,24.87
2019-03-24T18:47:55.110Z,24.47
2019-03-24T18:50:23.531Z,25.33
2019-03-24T18:52:51.971Z,26.50
2019-03-24T18:55:20.364Z,25.50
2019-03-24T18:57:48.776Z,24.47
2019-03-24T19:00:18.114Z,26.37
2019-03-24T19:02:46.538Z,24.93
2019-03-24T19:05:15.371Z,25.20
2019-03-24T19:07:43.861Z,23.93
2019-03-24T19:10:13.795Z,25.03
2019-03-24T19:12:42.255Z,22.93
2019-03-24T19:15:13.646Z,24.60
2019-03-24T19:17:42.114Z,25.43
2019-03-24T19:20:11.275Z,23.07
2019-03-24T19:22:39.738Z,23.33
2019-03-24T19:25:08.701Z,24.10
2019-03-24T19:27:37.183Z,20.90
2019-03-24T19:30:11.530Z,21.83
2019-03-24T19:32:39.943Z,22.13
2019-03-24T19:35:08.678Z,23.00
2019-03-24T19:37:37.522Z,22.97
2019-03-24T19:40:08.582Z,22.50
2019-03-24T19:42:42.443Z,22.90
2019-03-24T19:45:11.211Z,24.53
2019-03-24T19:47:40.015Z,22.43
2019-03-24T19:50:08.587Z,22.83
2019-03-24T19:52:44.553Z,23.30
2019-03-24T19:55:07.550Z,23.67
2019-03-24T19:57:35.972Z,22.47
2019-03-24T20:00:06.604Z,22.93
2019-03-24T20:02:35.004Z,20.97
2019-03-24T20:05:03.494Z,22.40
2019-03-24T20:07:31.959Z,22.20
2019-03-24T20:10:00.575Z,21.27
2019-03-24T20:12:28.980Z,21.20
2019-03-24T20:14:57.417Z,22.33
2019-03-24T20:17:25.851Z,20.27
2019-03-24T20:19:54.272Z,20.70
2019-03-24T20:22:22.758Z,21.33
2019-03-24T20:24:51.186Z,22.03
2019-03-24T20:27:19.586Z,22.73
2019-03-24T20:29:48.084Z,20.93
2019-03-24T20:32:16.781Z,22.57
2019-03-24T20:34:45.178Z,20.17
2019-03-24T20:37:13.583Z,20.93
2019-03-24T20:39:42.010Z,20.93
2019-03-24T20:42:10.414Z,19.53
2019-03-24T20:44:38.845Z,20.40
2019-03-24T20:47:07.406Z,21.07
2019-03-24T20:49:40.546Z,19.33
2019-03-24T20:52:08.991Z,20.67
2019-03-24T20:54:37.791Z,20.20
2019-03-24T20:57:06.202Z,21.17
2019-03-24T20:59:34.684Z,20.17
2019-03-24T21:02:03.094Z,19.47
2019-03-24T21:04:31.524Z,19.63
2019-03-24T21:06:59.918Z,20.30
2019-03-24T21:09:28.415Z,18.77
2019-03-24T21:11:56.811Z,18.43
2019-03-24T21:14:25.219Z,19.10
2019-03-24T21:16:53.709Z,18.57
2019-03-24T21:19:22.177Z,18.27
2019-03-24T21:21:50.657Z,18.70
2019-03-24T21:24:19.135Z,18.63
2019-03-24T21:26:47.531Z,19.57
2019-03-24T21:29:15.955Z,18.27
2019-03-24T21:31:44.369Z,19.13
2019-03-24T21:34:12.811Z,18.13
2019-03-24T21:36:41.314Z,18.60
2019-03-24T21:39:09.711Z,18.43
2019-03-24T21:41:38.126Z,16.80
2019-03-24T21:44:06.550Z,19.10
2019-03-24T21:46:35.023Z,17.57
2019-03-24T21:49:03.584Z,16.03
2019-03-24T21:51:32.128Z,14.70
2019-03-24T21:54:20.182Z,15.30
2019-03-24T21:56:48.721Z,15.70
2019-03-24T21:59:17.199Z,14.80
2019-03-24T22:01:45.914Z,12.47
2019-03-24T22:04:14.350Z,12.83
2019-03-24T22:06:42.742Z,12.80
2019-03-24T22:09:17.102Z,12.10
2019-03-24T22:11:45.657Z,12.67
2019-03-24T22:14:15.588Z,12.80
2019-03-24T22:16:44.194Z,13.40
2019-03-24T22:19:12.597Z,12.33
2019-03-24T22:21:41.000Z,13.57
2019-03-24T22:24:09.486Z,12.83
2019-03-24T22:26:38.066Z,13.00
2019-03-24T22:29:06.461Z,13.60
2019-03-24T22:31:34.938Z,14.13
2019-03-24T22:34:03.907Z,13.73
2019-03-24T22:36:32.332Z,14.67
2019-03-24T22:39:00.807Z,15.07
2019-03-24T22:41:29.217Z,16.47
2019-03-24T22:43:57.678Z,17.53
2019-03-24T22:46:26.085Z,16.17
2019-03-24T22:48:54.470Z,17.63
2019-03-24T22:51:22.978Z,17.93
2019-03-24T22:53:51.478Z,18.17
2019-03-24T22:56:19.954Z,17.73
2019-03-24T22:58:48.362Z,17.37
2019-03-24T23:01:17.690Z,18.57
2019-03-24T23:03:46.151Z,18.10
2019-03-24T23:06:14.638Z,18.63
2019-03-24T23:08:43.168Z,17.97
2019-03-24T23:11:11.594Z,19.80
2019-03-24T23:13:39.982Z,18.40
2019-03-24T23:16:08.415Z,18.77
2019-03-24T23:18:36.818Z,16.50
2019-03-24T23:21:05.211Z,16.83
2019-03-24T23:23:33.642Z,16.60
2019-03-24T23:26:02.025Z,15.93
2019-03-24T23:28:30.425Z,15.77
2019-03-24T23:30:58.826Z,16.23
2019-03-24T23:33:27.255Z,14.70
2019-03-24T23:35:55.669Z,16.50
2019-03-24T23:38:24.078Z,15.80
2019-03-24T23:40:52.565Z,15.27
2019-03-24T23:43:21.218Z,15.67
2019-03-24T23:45:49.842Z,14.77
2019-03-24T23:48:18.253Z,14.00
2019-03-24T23:50:47.088Z,15.23
2019-03-24T23:53:15.498Z,14.47
2019-03-24T23:55:43.912Z,14.37
2019-03-24T23:58:12.303Z,13.83
